<?xml version="1.0" encoding="UTF-8" standalone="no" ?>
<gpx xmlns="http://www.topografix.com/GPX/1/1" xmlns:xsi="http://www.w3.org/2001/XMLSchema-instance" xsi:schemaLocation="http://www.topografix.com/GPX/1/1 http://www.topografix.com/GPX/1/1/gpx.xsd" version="1.1" creator="VisuGPX - https://www.visugpx.com">
  <metadata>
    <name>Claveisolles 2</name>
  </metadata>
  <trk>
    <name><![CDATA[Claveisolles 2_1]]></name>
    <extensions>
      <line xmlns="http://www.topografix.com/GPX/gpx_style/0/2">
        <color>0000FF</color>
        <width>4</width>
      </line>
    </extensions>
    <trkseg>
      <trkpt lat="46.1012" lon="4.4973">
        <ele>465.7</ele>
        <time>2020-05-21T13:29:21+02:00</time>
      </trkpt>
      <trkpt lat="46.10172" lon="4.49801">
        <ele>470.6</ele>
        <time>2020-05-21T13:27:45+02:00</time>
      </trkpt>
      <trkpt lat="46.10167" lon="4.49743">
        <ele>472.9</ele>
        <time>2020-05-21T13:26:51+02:00</time>
      </trkpt>
      <trkpt lat="46.10161" lon="4.49689">
        <ele>470.5</ele>
        <time>2020-05-21T13:26:01+02:00</time>
      </trkpt>
      <trkpt lat="46.10174" lon="4.49684">
        <ele>472.5</ele>
        <time>2020-05-21T13:25:43+02:00</time>
      </trkpt>
      <trkpt lat="46.10201" lon="4.49684">
        <ele>476.4</ele>
        <time>2020-05-21T13:25:07+02:00</time>
      </trkpt>
      <trkpt lat="46.10222" lon="4.49676">
        <ele>479.2</ele>
        <time>2020-05-21T13:24:38+02:00</time>
      </trkpt>
      <trkpt lat="46.10251" lon="4.49681">
        <ele>483.5</ele>
        <time>2020-05-21T13:23:59+02:00</time>
      </trkpt>
      <trkpt lat="46.10321" lon="4.49705">
        <ele>493.9</ele>
        <time>2020-05-21T13:22:23+02:00</time>
      </trkpt>
      <trkpt lat="46.10393" lon="4.49733">
        <ele>499.1</ele>
        <time>2020-05-21T13:20:43+02:00</time>
      </trkpt>
      <trkpt lat="46.10469" lon="4.49785">
        <ele>498.6</ele>
        <time>2020-05-21T13:18:51+02:00</time>
      </trkpt>
      <trkpt lat="46.10503" lon="4.49868">
        <ele>505</ele>
        <time>2020-05-21T13:17:22+02:00</time>
      </trkpt>
      <trkpt lat="46.10524" lon="4.49998">
        <ele>509.2</ele>
        <time>2020-05-21T13:15:18+02:00</time>
      </trkpt>
      <trkpt lat="46.10562" lon="4.50066">
        <ele>516.5</ele>
        <time>2020-05-21T13:13:57+02:00</time>
      </trkpt>
      <trkpt lat="46.10589" lon="4.50063">
        <ele>520.3</ele>
        <time>2020-05-21T13:13:21+02:00</time>
      </trkpt>
      <trkpt lat="46.10641" lon="4.5004">
        <ele>525.9</ele>
        <time>2020-05-21T13:12:09+02:00</time>
      </trkpt>
      <trkpt lat="46.10681" lon="4.50003">
        <ele>529.3</ele>
        <time>2020-05-21T13:11:05+02:00</time>
      </trkpt>
      <trkpt lat="46.10724" lon="4.49996">
        <ele>534.7</ele>
        <time>2020-05-21T13:10:08+02:00</time>
      </trkpt>
      <trkpt lat="46.10749" lon="4.50016">
        <ele>540.4</ele>
        <time>2020-05-21T13:09:29+02:00</time>
      </trkpt>
      <trkpt lat="46.10783" lon="4.50032">
        <ele>550.9</ele>
        <time>2020-05-21T13:08:42+02:00</time>
      </trkpt>
      <trkpt lat="46.10808" lon="4.50009">
        <ele>555.3</ele>
        <time>2020-05-21T13:08:02+02:00</time>
      </trkpt>
      <trkpt lat="46.1081" lon="4.49946">
        <ele>549.1</ele>
        <time>2020-05-21T13:07:04+02:00</time>
      </trkpt>
      <trkpt lat="46.10814" lon="4.49889">
        <ele>543.5</ele>
        <time>2020-05-21T13:06:11+02:00</time>
      </trkpt>
      <trkpt lat="46.10862" lon="4.49842">
        <ele>548</ele>
        <time>2020-05-21T13:04:53+02:00</time>
      </trkpt>
      <trkpt lat="46.10923" lon="4.49806">
        <ele>549.1</ele>
        <time>2020-05-21T13:03:25+02:00</time>
      </trkpt>
      <trkpt lat="46.11002" lon="4.49803">
        <ele>544.5</ele>
        <time>2020-05-21T13:01:40+02:00</time>
      </trkpt>
      <trkpt lat="46.11106" lon="4.49834">
        <ele>527.7</ele>
        <time>2020-05-21T12:59:18+02:00</time>
      </trkpt>
      <trkpt lat="46.11157" lon="4.49884">
        <ele>523.6</ele>
        <time>2020-05-21T12:57:56+02:00</time>
      </trkpt>
      <trkpt lat="46.11223" lon="4.49954">
        <ele>530.2</ele>
        <time>2020-05-21T12:56:07+02:00</time>
      </trkpt>
      <trkpt lat="46.11223" lon="4.49996">
        <ele>541.4</ele>
        <time>2020-05-21T12:55:28+02:00</time>
      </trkpt>
      <trkpt lat="46.11254" lon="4.50003">
        <ele>536.7</ele>
        <time>2020-05-21T12:54:46+02:00</time>
      </trkpt>
      <trkpt lat="46.11284" lon="4.50011">
        <ele>536.7</ele>
        <time>2020-05-21T12:54:05+02:00</time>
      </trkpt>
      <trkpt lat="46.11326" lon="4.49993">
        <ele>528.7</ele>
        <time>2020-05-21T12:53:07+02:00</time>
      </trkpt>
      <trkpt lat="46.11291" lon="4.49959">
        <ele>528</ele>
        <time>2020-05-21T12:52:10+02:00</time>
      </trkpt>
      <trkpt lat="46.1127" lon="4.49936">
        <ele>523.9</ele>
        <time>2020-05-21T12:51:35+02:00</time>
      </trkpt>
      <trkpt lat="46.11245" lon="4.49892">
        <ele>521.5</ele>
        <time>2020-05-21T12:50:43+02:00</time>
      </trkpt>
      <trkpt lat="46.11211" lon="4.49834">
        <ele>522</ele>
        <time>2020-05-21T12:49:32+02:00</time>
      </trkpt>
      <trkpt lat="46.11175" lon="4.49798">
        <ele>516.8</ele>
        <time>2020-05-21T12:48:34+02:00</time>
      </trkpt>
      <trkpt lat="46.1115" lon="4.49777">
        <ele>516.2</ele>
        <time>2020-05-21T12:47:55+02:00</time>
      </trkpt>
      <trkpt lat="46.11094" lon="4.49686">
        <ele>508</ele>
        <time>2020-05-21T12:46:03+02:00</time>
      </trkpt>
      <trkpt lat="46.11045" lon="4.49616">
        <ele>498.3</ele>
        <time>2020-05-21T12:44:31+02:00</time>
      </trkpt>
      <trkpt lat="46.10984" lon="4.49556">
        <ele>483.6</ele>
        <time>2020-05-21T12:42:52+02:00</time>
      </trkpt>
      <trkpt lat="46.10954" lon="4.49509">
        <ele>475.7</ele>
        <time>2020-05-21T12:41:53+02:00</time>
      </trkpt>
      <trkpt lat="46.10946" lon="4.49479">
        <ele>471.5</ele>
        <time>2020-05-21T12:41:23+02:00</time>
      </trkpt>
      <trkpt lat="46.10973" lon="4.49475">
        <ele>473.2</ele>
        <time>2020-05-21T12:40:47+02:00</time>
      </trkpt>
      <trkpt lat="46.11" lon="4.49467">
        <ele>474.4</ele>
        <time>2020-05-21T12:40:10+02:00</time>
      </trkpt>
      <trkpt lat="46.11027" lon="4.49454">
        <ele>476.7</ele>
        <time>2020-05-21T12:39:32+02:00</time>
      </trkpt>
      <trkpt lat="46.11053" lon="4.4944">
        <ele>478.1</ele>
        <time>2020-05-21T12:38:55+02:00</time>
      </trkpt>
      <trkpt lat="46.11079" lon="4.49426">
        <ele>479.1</ele>
        <time>2020-05-21T12:38:18+02:00</time>
      </trkpt>
      <trkpt lat="46.11105" lon="4.49414">
        <ele>481.6</ele>
        <time>2020-05-21T12:37:42+02:00</time>
      </trkpt>
      <trkpt lat="46.11131" lon="4.494">
        <ele>483.7</ele>
        <time>2020-05-21T12:37:05+02:00</time>
      </trkpt>
      <trkpt lat="46.11182" lon="4.49372">
        <ele>485.5</ele>
        <time>2020-05-21T12:35:52+02:00</time>
      </trkpt>
      <trkpt lat="46.11208" lon="4.49359">
        <ele>486.7</ele>
        <time>2020-05-21T12:35:15+02:00</time>
      </trkpt>
      <trkpt lat="46.11233" lon="4.49345">
        <ele>486.9</ele>
        <time>2020-05-21T12:34:39+02:00</time>
      </trkpt>
      <trkpt lat="46.1126" lon="4.49332">
        <ele>487.6</ele>
        <time>2020-05-21T12:34:01+02:00</time>
      </trkpt>
      <trkpt lat="46.11286" lon="4.49322">
        <ele>490.6</ele>
        <time>2020-05-21T12:33:25+02:00</time>
      </trkpt>
      <trkpt lat="46.11314" lon="4.49314">
        <ele>493.6</ele>
        <time>2020-05-21T12:32:47+02:00</time>
      </trkpt>
      <trkpt lat="46.11368" lon="4.49303">
        <ele>494.2</ele>
        <time>2020-05-21T12:31:35+02:00</time>
      </trkpt>
      <trkpt lat="46.11396" lon="4.49305">
        <ele>494.8</ele>
        <time>2020-05-21T12:30:57+02:00</time>
      </trkpt>
      <trkpt lat="46.11478" lon="4.49306">
        <ele>496.1</ele>
        <time>2020-05-21T12:29:08+02:00</time>
      </trkpt>
      <trkpt lat="46.11493" lon="4.49277">
        <ele>489.3</ele>
        <time>2020-05-21T12:28:34+02:00</time>
      </trkpt>
      <trkpt lat="46.1151" lon="4.49246">
        <ele>483.3</ele>
        <time>2020-05-21T12:27:58+02:00</time>
      </trkpt>
      <trkpt lat="46.11529" lon="4.49217">
        <ele>486.8</ele>
        <time>2020-05-21T12:27:21+02:00</time>
      </trkpt>
      <trkpt lat="46.1153" lon="4.49179">
        <ele>491.2</ele>
        <time>2020-05-21T12:26:46+02:00</time>
      </trkpt>
      <trkpt lat="46.11508" lon="4.49161">
        <ele>490.9</ele>
        <time>2020-05-21T12:26:12+02:00</time>
      </trkpt>
      <trkpt lat="46.11512" lon="4.49129">
        <ele>496.6</ele>
        <time>2020-05-21T12:25:42+02:00</time>
      </trkpt>
      <trkpt lat="46.11531" lon="4.49103">
        <ele>503.8</ele>
        <time>2020-05-21T12:25:07+02:00</time>
      </trkpt>
      <trkpt lat="46.11548" lon="4.49073">
        <ele>510.4</ele>
        <time>2020-05-21T12:24:31+02:00</time>
      </trkpt>
      <trkpt lat="46.11566" lon="4.49045">
        <ele>511.8</ele>
        <time>2020-05-21T12:23:56+02:00</time>
      </trkpt>
      <trkpt lat="46.11588" lon="4.49021">
        <ele>510.8</ele>
        <time>2020-05-21T12:23:19+02:00</time>
      </trkpt>
      <trkpt lat="46.11612" lon="4.49003">
        <ele>514.3</ele>
        <time>2020-05-21T12:22:43+02:00</time>
      </trkpt>
      <trkpt lat="46.11635" lon="4.48985">
        <ele>518.9</ele>
        <time>2020-05-21T12:22:08+02:00</time>
      </trkpt>
      <trkpt lat="46.11656" lon="4.4896">
        <ele>522.5</ele>
        <time>2020-05-21T12:21:32+02:00</time>
      </trkpt>
      <trkpt lat="46.11676" lon="4.48933">
        <ele>525.5</ele>
        <time>2020-05-21T12:20:55+02:00</time>
      </trkpt>
      <trkpt lat="46.11695" lon="4.48905">
        <ele>529.3</ele>
        <time>2020-05-21T12:20:19+02:00</time>
      </trkpt>
      <trkpt lat="46.11721" lon="4.48894">
        <ele>535.2</ele>
        <time>2020-05-21T12:19:43+02:00</time>
      </trkpt>
      <trkpt lat="46.11745" lon="4.48878">
        <ele>540.8</ele>
        <time>2020-05-21T12:19:07+02:00</time>
      </trkpt>
      <trkpt lat="46.11763" lon="4.48849">
        <ele>543.6</ele>
        <time>2020-05-21T12:18:31+02:00</time>
      </trkpt>
      <trkpt lat="46.11779" lon="4.48817">
        <ele>545.3</ele>
        <time>2020-05-21T12:17:55+02:00</time>
      </trkpt>
      <trkpt lat="46.11797" lon="4.48786">
        <ele>547.2</ele>
        <time>2020-05-21T12:17:17+02:00</time>
      </trkpt>
      <trkpt lat="46.11815" lon="4.48754">
        <ele>549.7</ele>
        <time>2020-05-21T12:16:39+02:00</time>
      </trkpt>
      <trkpt lat="46.11831" lon="4.48721">
        <ele>552.9</ele>
        <time>2020-05-21T12:16:02+02:00</time>
      </trkpt>
      <trkpt lat="46.1184" lon="4.48683">
        <ele>554.2</ele>
        <time>2020-05-21T12:15:25+02:00</time>
      </trkpt>
      <trkpt lat="46.1184" lon="4.48643">
        <ele>556.7</ele>
        <time>2020-05-21T12:14:48+02:00</time>
      </trkpt>
      <trkpt lat="46.11828" lon="4.48606">
        <ele>559</ele>
        <time>2020-05-21T12:14:10+02:00</time>
      </trkpt>
      <trkpt lat="46.11809" lon="4.48577">
        <ele>558.5</ele>
        <time>2020-05-21T12:13:33+02:00</time>
      </trkpt>
      <trkpt lat="46.11811" lon="4.48538">
        <ele>561.1</ele>
        <time>2020-05-21T12:12:57+02:00</time>
      </trkpt>
      <trkpt lat="46.11821" lon="4.48502">
        <ele>565.2</ele>
        <time>2020-05-21T12:12:21+02:00</time>
      </trkpt>
      <trkpt lat="46.11836" lon="4.4847">
        <ele>567.1</ele>
        <time>2020-05-21T12:11:45+02:00</time>
      </trkpt>
      <trkpt lat="46.11856" lon="4.48447">
        <ele>567.8</ele>
        <time>2020-05-21T12:11:11+02:00</time>
      </trkpt>
      <trkpt lat="46.11881" lon="4.48429">
        <ele>569.6</ele>
        <time>2020-05-21T12:10:34+02:00</time>
      </trkpt>
      <trkpt lat="46.11906" lon="4.48414">
        <ele>571.7</ele>
        <time>2020-05-21T12:09:58+02:00</time>
      </trkpt>
      <trkpt lat="46.11932" lon="4.48399">
        <ele>572.5</ele>
        <time>2020-05-21T12:09:20+02:00</time>
      </trkpt>
      <trkpt lat="46.11951" lon="4.484">
        <ele>574.1</ele>
        <time>2020-05-21T12:08:55+02:00</time>
      </trkpt>
      <trkpt lat="46.11964" lon="4.48436">
        <ele>575.1</ele>
        <time>2020-05-21T12:08:18+02:00</time>
      </trkpt>
      <trkpt lat="46.11989" lon="4.48453">
        <ele>575.7</ele>
        <time>2020-05-21T12:07:41+02:00</time>
      </trkpt>
      <trkpt lat="46.12017" lon="4.48456">
        <ele>577.5</ele>
        <time>2020-05-21T12:07:03+02:00</time>
      </trkpt>
      <trkpt lat="46.12038" lon="4.48437">
        <ele>580.3</ele>
        <time>2020-05-21T12:06:30+02:00</time>
      </trkpt>
      <trkpt lat="46.1204" lon="4.48395">
        <ele>582.2</ele>
        <time>2020-05-21T12:05:51+02:00</time>
      </trkpt>
      <trkpt lat="46.12059" lon="4.48376">
        <ele>584.7</ele>
        <time>2020-05-21T12:05:20+02:00</time>
      </trkpt>
      <trkpt lat="46.1206" lon="4.48377">
        <ele>584.8</ele>
        <time>2020-05-21T12:05:19+02:00</time>
      </trkpt>
      <trkpt lat="46.1206" lon="4.48346">
        <ele>585.6</ele>
        <time>2020-05-21T12:04:50+02:00</time>
      </trkpt>
      <trkpt lat="46.12067" lon="4.48309">
        <ele>586.3</ele>
        <time>2020-05-21T12:04:15+02:00</time>
      </trkpt>
      <trkpt lat="46.12078" lon="4.48273">
        <ele>587.3</ele>
        <time>2020-05-21T12:03:38+02:00</time>
      </trkpt>
      <trkpt lat="46.12083" lon="4.48234">
        <ele>587.9</ele>
        <time>2020-05-21T12:03:01+02:00</time>
      </trkpt>
      <trkpt lat="46.12081" lon="4.48195">
        <ele>587.5</ele>
        <time>2020-05-21T12:02:25+02:00</time>
      </trkpt>
      <trkpt lat="46.12077" lon="4.48155">
        <ele>587</ele>
        <time>2020-05-21T12:01:48+02:00</time>
      </trkpt>
      <trkpt lat="46.12073" lon="4.48116">
        <ele>587.4</ele>
        <time>2020-05-21T12:01:11+02:00</time>
      </trkpt>
      <trkpt lat="46.12069" lon="4.48077">
        <ele>588</ele>
        <time>2020-05-21T12:00:35+02:00</time>
      </trkpt>
      <trkpt lat="46.12058" lon="4.48039">
        <ele>588.4</ele>
        <time>2020-05-21T11:59:57+02:00</time>
      </trkpt>
      <trkpt lat="46.12045" lon="4.48005">
        <ele>588.7</ele>
        <time>2020-05-21T11:59:21+02:00</time>
      </trkpt>
      <trkpt lat="46.12027" lon="4.47976">
        <ele>588.7</ele>
        <time>2020-05-21T11:58:45+02:00</time>
      </trkpt>
      <trkpt lat="46.12007" lon="4.47949">
        <ele>588.8</ele>
        <time>2020-05-21T11:58:08+02:00</time>
      </trkpt>
      <trkpt lat="46.11987" lon="4.47923">
        <ele>588.9</ele>
        <time>2020-05-21T11:57:33+02:00</time>
      </trkpt>
      <trkpt lat="46.11975" lon="4.47888">
        <ele>589.7</ele>
        <time>2020-05-21T11:56:56+02:00</time>
      </trkpt>
      <trkpt lat="46.1197" lon="4.47848">
        <ele>591.8</ele>
        <time>2020-05-21T11:56:19+02:00</time>
      </trkpt>
      <trkpt lat="46.11968" lon="4.47809">
        <ele>592.6</ele>
        <time>2020-05-21T11:55:43+02:00</time>
      </trkpt>
      <trkpt lat="46.11971" lon="4.47774">
        <ele>592.6</ele>
        <time>2020-05-21T11:55:10+02:00</time>
      </trkpt>
      <trkpt lat="46.11971" lon="4.47744">
        <ele>592.2</ele>
        <time>2020-05-21T11:54:42+02:00</time>
      </trkpt>
      <trkpt lat="46.11982" lon="4.47708">
        <ele>589.6</ele>
        <time>2020-05-21T11:54:06+02:00</time>
      </trkpt>
      <trkpt lat="46.11988" lon="4.47672">
        <ele>585.7</ele>
        <time>2020-05-21T11:53:32+02:00</time>
      </trkpt>
      <trkpt lat="46.11988" lon="4.4763">
        <ele>587.3</ele>
        <time>2020-05-21T11:52:53+02:00</time>
      </trkpt>
      <trkpt lat="46.11991" lon="4.47548">
        <ele>589.9</ele>
        <time>2020-05-21T11:51:37+02:00</time>
      </trkpt>
      <trkpt lat="46.11995" lon="4.47504">
        <ele>589.9</ele>
        <time>2020-05-21T11:50:56+02:00</time>
      </trkpt>
      <trkpt lat="46.12" lon="4.47462">
        <ele>591.2</ele>
        <time>2020-05-21T11:50:16+02:00</time>
      </trkpt>
      <trkpt lat="46.12006" lon="4.47422">
        <ele>591.6</ele>
        <time>2020-05-21T11:49:38+02:00</time>
      </trkpt>
      <trkpt lat="46.1202" lon="4.47343">
        <ele>589.8</ele>
        <time>2020-05-21T11:48:23+02:00</time>
      </trkpt>
      <trkpt lat="46.12028" lon="4.47303">
        <ele>588.2</ele>
        <time>2020-05-21T11:47:45+02:00</time>
      </trkpt>
      <trkpt lat="46.12033" lon="4.47261">
        <ele>588.4</ele>
        <time>2020-05-21T11:47:05+02:00</time>
      </trkpt>
      <trkpt lat="46.1203" lon="4.47221">
        <ele>590</ele>
        <time>2020-05-21T11:46:28+02:00</time>
      </trkpt>
      <trkpt lat="46.12022" lon="4.47141">
        <ele>590</ele>
        <time>2020-05-21T11:45:13+02:00</time>
      </trkpt>
      <trkpt lat="46.12005" lon="4.47106">
        <ele>593.8</ele>
        <time>2020-05-21T11:44:34+02:00</time>
      </trkpt>
      <trkpt lat="46.11979" lon="4.47092">
        <ele>595.8</ele>
        <time>2020-05-21T11:43:57+02:00</time>
      </trkpt>
      <trkpt lat="46.11951" lon="4.47086">
        <ele>596.7</ele>
        <time>2020-05-21T11:43:19+02:00</time>
      </trkpt>
      <trkpt lat="46.11923" lon="4.4708">
        <ele>597</ele>
        <time>2020-05-21T11:42:41+02:00</time>
      </trkpt>
      <trkpt lat="46.11894" lon="4.47078">
        <ele>595.8</ele>
        <time>2020-05-21T11:42:02+02:00</time>
      </trkpt>
      <trkpt lat="46.11865" lon="4.47067">
        <ele>591.7</ele>
        <time>2020-05-21T11:41:22+02:00</time>
      </trkpt>
      <trkpt lat="46.11829" lon="4.47061">
        <ele>588</ele>
        <time>2020-05-21T11:40:34+02:00</time>
      </trkpt>
      <trkpt lat="46.11796" lon="4.47051">
        <ele>582.6</ele>
        <time>2020-05-21T11:39:49+02:00</time>
      </trkpt>
      <trkpt lat="46.11766" lon="4.47046">
        <ele>578.9</ele>
        <time>2020-05-21T11:39:09+02:00</time>
      </trkpt>
      <trkpt lat="46.11736" lon="4.47048">
        <ele>577.5</ele>
        <time>2020-05-21T11:38:29+02:00</time>
      </trkpt>
      <trkpt lat="46.11675" lon="4.47063">
        <ele>579.1</ele>
        <time>2020-05-21T11:37:06+02:00</time>
      </trkpt>
      <trkpt lat="46.11647" lon="4.47075">
        <ele>578.4</ele>
        <time>2020-05-21T11:36:27+02:00</time>
      </trkpt>
      <trkpt lat="46.11622" lon="4.47107">
        <ele>580.3</ele>
        <time>2020-05-21T11:35:42+02:00</time>
      </trkpt>
      <trkpt lat="46.11604" lon="4.47141">
        <ele>582.2</ele>
        <time>2020-05-21T11:35:03+02:00</time>
      </trkpt>
      <trkpt lat="46.1159" lon="4.47179">
        <ele>584.8</ele>
        <time>2020-05-21T11:34:23+02:00</time>
      </trkpt>
      <trkpt lat="46.11577" lon="4.4722">
        <ele>588.2</ele>
        <time>2020-05-21T11:33:41+02:00</time>
      </trkpt>
      <trkpt lat="46.1156" lon="4.47255">
        <ele>589.1</ele>
        <time>2020-05-21T11:33:02+02:00</time>
      </trkpt>
      <trkpt lat="46.11546" lon="4.47293">
        <ele>591.6</ele>
        <time>2020-05-21T11:32:22+02:00</time>
      </trkpt>
      <trkpt lat="46.11525" lon="4.47325">
        <ele>592.2</ele>
        <time>2020-05-21T11:31:41+02:00</time>
      </trkpt>
      <trkpt lat="46.11498" lon="4.47335">
        <ele>588.3</ele>
        <time>2020-05-21T11:31:04+02:00</time>
      </trkpt>
      <trkpt lat="46.11471" lon="4.47336">
        <ele>588.7</ele>
        <time>2020-05-21T11:30:28+02:00</time>
      </trkpt>
      <trkpt lat="46.11445" lon="4.47321">
        <ele>586.9</ele>
        <time>2020-05-21T11:29:51+02:00</time>
      </trkpt>
      <trkpt lat="46.11426" lon="4.47291">
        <ele>583.9</ele>
        <time>2020-05-21T11:29:13+02:00</time>
      </trkpt>
      <trkpt lat="46.11412" lon="4.47257">
        <ele>582.1</ele>
        <time>2020-05-21T11:28:36+02:00</time>
      </trkpt>
      <trkpt lat="46.11401" lon="4.47219">
        <ele>580.5</ele>
        <time>2020-05-21T11:27:58+02:00</time>
      </trkpt>
      <trkpt lat="46.11389" lon="4.47183">
        <ele>580.2</ele>
        <time>2020-05-21T11:27:21+02:00</time>
      </trkpt>
      <trkpt lat="46.11374" lon="4.47149">
        <ele>581.3</ele>
        <time>2020-05-21T11:26:44+02:00</time>
      </trkpt>
      <trkpt lat="46.11359" lon="4.47116">
        <ele>582.4</ele>
        <time>2020-05-21T11:26:08+02:00</time>
      </trkpt>
      <trkpt lat="46.11342" lon="4.47084">
        <ele>584.7</ele>
        <time>2020-05-21T11:25:30+02:00</time>
      </trkpt>
      <trkpt lat="46.11318" lon="4.47063">
        <ele>587.7</ele>
        <time>2020-05-21T11:24:53+02:00</time>
      </trkpt>
      <trkpt lat="46.11289" lon="4.47057">
        <ele>589.2</ele>
        <time>2020-05-21T11:24:14+02:00</time>
      </trkpt>
      <trkpt lat="46.1126" lon="4.47058">
        <ele>591.4</ele>
        <time>2020-05-21T11:23:35+02:00</time>
      </trkpt>
      <trkpt lat="46.11232" lon="4.47069">
        <ele>590.6</ele>
        <time>2020-05-21T11:22:56+02:00</time>
      </trkpt>
      <trkpt lat="46.11205" lon="4.47085">
        <ele>588.3</ele>
        <time>2020-05-21T11:22:17+02:00</time>
      </trkpt>
      <trkpt lat="46.11177" lon="4.47101">
        <ele>587.5</ele>
        <time>2020-05-21T11:21:37+02:00</time>
      </trkpt>
      <trkpt lat="46.11153" lon="4.47121">
        <ele>587.9</ele>
        <time>2020-05-21T11:21:00+02:00</time>
      </trkpt>
      <trkpt lat="46.1113" lon="4.47145">
        <ele>588.8</ele>
        <time>2020-05-21T11:20:22+02:00</time>
      </trkpt>
      <trkpt lat="46.11108" lon="4.47169">
        <ele>589.6</ele>
        <time>2020-05-21T11:19:45+02:00</time>
      </trkpt>
      <trkpt lat="46.11085" lon="4.47191">
        <ele>588.3</ele>
        <time>2020-05-21T11:19:09+02:00</time>
      </trkpt>
      <trkpt lat="46.11062" lon="4.47214">
        <ele>587.8</ele>
        <time>2020-05-21T11:18:31+02:00</time>
      </trkpt>
      <trkpt lat="46.11041" lon="4.47238">
        <ele>588</ele>
        <time>2020-05-21T11:17:56+02:00</time>
      </trkpt>
      <trkpt lat="46.10974" lon="4.47307">
        <ele>592.5</ele>
        <time>2020-05-21T11:16:06+02:00</time>
      </trkpt>
      <trkpt lat="46.10949" lon="4.47316">
        <ele>593</ele>
        <time>2020-05-21T11:15:31+02:00</time>
      </trkpt>
      <trkpt lat="46.10919" lon="4.47313">
        <ele>590</ele>
        <time>2020-05-21T11:14:51+02:00</time>
      </trkpt>
      <trkpt lat="46.10892" lon="4.47325">
        <ele>589.1</ele>
        <time>2020-05-21T11:14:13+02:00</time>
      </trkpt>
      <trkpt lat="46.1087" lon="4.47349">
        <ele>592.7</ele>
        <time>2020-05-21T11:13:37+02:00</time>
      </trkpt>
      <trkpt lat="46.10847" lon="4.47369">
        <ele>595.9</ele>
        <time>2020-05-21T11:13:01+02:00</time>
      </trkpt>
      <trkpt lat="46.1082" lon="4.47378">
        <ele>596.2</ele>
        <time>2020-05-21T11:12:24+02:00</time>
      </trkpt>
      <trkpt lat="46.10794" lon="4.47364">
        <ele>590.6</ele>
        <time>2020-05-21T11:11:47+02:00</time>
      </trkpt>
      <trkpt lat="46.10765" lon="4.47346">
        <ele>585</ele>
        <time>2020-05-21T11:11:05+02:00</time>
      </trkpt>
      <trkpt lat="46.10733" lon="4.47345">
        <ele>585.1</ele>
        <time>2020-05-21T11:10:22+02:00</time>
      </trkpt>
      <trkpt lat="46.10704" lon="4.4735">
        <ele>586.8</ele>
        <time>2020-05-21T11:09:43+02:00</time>
      </trkpt>
      <trkpt lat="46.10675" lon="4.47357">
        <ele>588</ele>
        <time>2020-05-21T11:09:04+02:00</time>
      </trkpt>
      <trkpt lat="46.10654" lon="4.47382">
        <ele>586.8</ele>
        <time>2020-05-21T11:08:27+02:00</time>
      </trkpt>
      <trkpt lat="46.10664" lon="4.47419">
        <ele>590.5</ele>
        <time>2020-05-21T11:07:51+02:00</time>
      </trkpt>
      <trkpt lat="46.1067" lon="4.47456">
        <ele>593</ele>
        <time>2020-05-21T11:07:16+02:00</time>
      </trkpt>
      <trkpt lat="46.10665" lon="4.47495">
        <ele>593.5</ele>
        <time>2020-05-21T11:06:39+02:00</time>
      </trkpt>
      <trkpt lat="46.10658" lon="4.47536">
        <ele>595.2</ele>
        <time>2020-05-21T11:06:00+02:00</time>
      </trkpt>
      <trkpt lat="46.10645" lon="4.47574">
        <ele>595.5</ele>
        <time>2020-05-21T11:05:21+02:00</time>
      </trkpt>
      <trkpt lat="46.1063" lon="4.47609">
        <ele>595.8</ele>
        <time>2020-05-21T11:04:42+02:00</time>
      </trkpt>
      <trkpt lat="46.10613" lon="4.47641">
        <ele>595.8</ele>
        <time>2020-05-21T11:04:05+02:00</time>
      </trkpt>
      <trkpt lat="46.10592" lon="4.47666">
        <ele>594.6</ele>
        <time>2020-05-21T11:03:29+02:00</time>
      </trkpt>
      <trkpt lat="46.10573" lon="4.47696">
        <ele>593</ele>
        <time>2020-05-21T11:02:51+02:00</time>
      </trkpt>
      <trkpt lat="46.10556" lon="4.47726">
        <ele>591.2</ele>
        <time>2020-05-21T11:02:15+02:00</time>
      </trkpt>
      <trkpt lat="46.10541" lon="4.4776">
        <ele>590.1</ele>
        <time>2020-05-21T11:01:38+02:00</time>
      </trkpt>
      <trkpt lat="46.10525" lon="4.47794">
        <ele>588</ele>
        <time>2020-05-21T11:01:00+02:00</time>
      </trkpt>
      <trkpt lat="46.10511" lon="4.47834">
        <ele>586.5</ele>
        <time>2020-05-21T11:00:19+02:00</time>
      </trkpt>
      <trkpt lat="46.10495" lon="4.47871">
        <ele>582.9</ele>
        <time>2020-05-21T10:59:38+02:00</time>
      </trkpt>
      <trkpt lat="46.10483" lon="4.47909">
        <ele>581</ele>
        <time>2020-05-21T10:59:00+02:00</time>
      </trkpt>
      <trkpt lat="46.10473" lon="4.47949">
        <ele>578.1</ele>
        <time>2020-05-21T10:58:20+02:00</time>
      </trkpt>
      <trkpt lat="46.10465" lon="4.47987">
        <ele>575.7</ele>
        <time>2020-05-21T10:57:44+02:00</time>
      </trkpt>
      <trkpt lat="46.10451" lon="4.48022">
        <ele>571.6</ele>
        <time>2020-05-21T10:57:06+02:00</time>
      </trkpt>
      <trkpt lat="46.10425" lon="4.48037">
        <ele>565.7</ele>
        <time>2020-05-21T10:56:29+02:00</time>
      </trkpt>
      <trkpt lat="46.10399" lon="4.48051">
        <ele>564.5</ele>
        <time>2020-05-21T10:55:52+02:00</time>
      </trkpt>
      <trkpt lat="46.10372" lon="4.48058">
        <ele>565.5</ele>
        <time>2020-05-21T10:55:15+02:00</time>
      </trkpt>
      <trkpt lat="46.10318" lon="4.48063">
        <ele>568.9</ele>
        <time>2020-05-21T10:43:25+02:00</time>
      </trkpt>
      <trkpt lat="46.1029" lon="4.48063">
        <ele>571.7</ele>
        <time>2020-05-21T10:42:48+02:00</time>
      </trkpt>
      <trkpt lat="46.10262" lon="4.48063">
        <ele>574.6</ele>
        <time>2020-05-21T10:42:11+02:00</time>
      </trkpt>
      <trkpt lat="46.10236" lon="4.48077">
        <ele>577.1</ele>
        <time>2020-05-21T10:41:34+02:00</time>
      </trkpt>
      <trkpt lat="46.1021" lon="4.48101">
        <ele>579.7</ele>
        <time>2020-05-21T10:40:52+02:00</time>
      </trkpt>
      <trkpt lat="46.10184" lon="4.48119">
        <ele>581.7</ele>
        <time>2020-05-21T10:40:14+02:00</time>
      </trkpt>
      <trkpt lat="46.10156" lon="4.48131">
        <ele>583.1</ele>
        <time>2020-05-21T10:39:35+02:00</time>
      </trkpt>
      <trkpt lat="46.10128" lon="4.48146">
        <ele>584.3</ele>
        <time>2020-05-21T10:38:55+02:00</time>
      </trkpt>
      <trkpt lat="46.101" lon="4.48163">
        <ele>585</ele>
        <time>2020-05-21T10:38:15+02:00</time>
      </trkpt>
      <trkpt lat="46.10074" lon="4.48186">
        <ele>584.3</ele>
        <time>2020-05-21T10:37:34+02:00</time>
      </trkpt>
      <trkpt lat="46.10025" lon="4.48221">
        <ele>584.1</ele>
        <time>2020-05-21T10:36:21+02:00</time>
      </trkpt>
      <trkpt lat="46.10001" lon="4.4824">
        <ele>583.7</ele>
        <time>2020-05-21T10:35:44+02:00</time>
      </trkpt>
      <trkpt lat="46.09974" lon="4.48256">
        <ele>584.6</ele>
        <time>2020-05-21T10:35:05+02:00</time>
      </trkpt>
      <trkpt lat="46.0995" lon="4.48273">
        <ele>585.5</ele>
        <time>2020-05-21T10:34:30+02:00</time>
      </trkpt>
      <trkpt lat="46.09924" lon="4.48288">
        <ele>587.7</ele>
        <time>2020-05-21T10:33:52+02:00</time>
      </trkpt>
      <trkpt lat="46.09898" lon="4.48305">
        <ele>585.3</ele>
        <time>2020-05-21T10:33:14+02:00</time>
      </trkpt>
      <trkpt lat="46.09874" lon="4.48325">
        <ele>582.6</ele>
        <time>2020-05-21T10:32:37+02:00</time>
      </trkpt>
      <trkpt lat="46.09852" lon="4.48348">
        <ele>581.4</ele>
        <time>2020-05-21T10:32:01+02:00</time>
      </trkpt>
      <trkpt lat="46.09829" lon="4.48369">
        <ele>581</ele>
        <time>2020-05-21T10:31:25+02:00</time>
      </trkpt>
      <trkpt lat="46.09806" lon="4.4839">
        <ele>579.9</ele>
        <time>2020-05-21T10:30:48+02:00</time>
      </trkpt>
      <trkpt lat="46.09784" lon="4.48413">
        <ele>579.9</ele>
        <time>2020-05-21T10:30:12+02:00</time>
      </trkpt>
      <trkpt lat="46.09763" lon="4.48431">
        <ele>578.9</ele>
        <time>2020-05-21T10:29:40+02:00</time>
      </trkpt>
      <trkpt lat="46.09738" lon="4.48446">
        <ele>577.1</ele>
        <time>2020-05-21T10:29:03+02:00</time>
      </trkpt>
      <trkpt lat="46.09711" lon="4.48456">
        <ele>574.5</ele>
        <time>2020-05-21T10:28:26+02:00</time>
      </trkpt>
      <trkpt lat="46.09684" lon="4.48461">
        <ele>571.6</ele>
        <time>2020-05-21T10:27:50+02:00</time>
      </trkpt>
      <trkpt lat="46.09657" lon="4.48465">
        <ele>569.9</ele>
        <time>2020-05-21T10:27:14+02:00</time>
      </trkpt>
      <trkpt lat="46.0963" lon="4.4847">
        <ele>570.6</ele>
        <time>2020-05-21T10:26:37+02:00</time>
      </trkpt>
      <trkpt lat="46.09603" lon="4.48469">
        <ele>571</ele>
        <time>2020-05-21T10:26:01+02:00</time>
      </trkpt>
      <trkpt lat="46.09577" lon="4.4848">
        <ele>571.7</ele>
        <time>2020-05-21T10:25:25+02:00</time>
      </trkpt>
      <trkpt lat="46.09554" lon="4.48505">
        <ele>572.7</ele>
        <time>2020-05-21T10:24:47+02:00</time>
      </trkpt>
      <trkpt lat="46.09532" lon="4.48528">
        <ele>573</ele>
        <time>2020-05-21T10:24:10+02:00</time>
      </trkpt>
      <trkpt lat="46.09511" lon="4.48553">
        <ele>573.9</ele>
        <time>2020-05-21T10:23:34+02:00</time>
      </trkpt>
      <trkpt lat="46.09468" lon="4.48602">
        <ele>574.9</ele>
        <time>2020-05-21T10:22:21+02:00</time>
      </trkpt>
      <trkpt lat="46.09446" lon="4.48626">
        <ele>576.7</ele>
        <time>2020-05-21T10:21:44+02:00</time>
      </trkpt>
      <trkpt lat="46.09422" lon="4.48647">
        <ele>580</ele>
        <time>2020-05-21T10:21:07+02:00</time>
      </trkpt>
      <trkpt lat="46.09399" lon="4.48668">
        <ele>580.1</ele>
        <time>2020-05-21T10:20:30+02:00</time>
      </trkpt>
      <trkpt lat="46.09374" lon="4.48688">
        <ele>577.9</ele>
        <time>2020-05-21T10:19:52+02:00</time>
      </trkpt>
      <trkpt lat="46.0935" lon="4.4871">
        <ele>577.1</ele>
        <time>2020-05-21T10:19:14+02:00</time>
      </trkpt>
      <trkpt lat="46.09326" lon="4.48729">
        <ele>577.1</ele>
        <time>2020-05-21T10:18:38+02:00</time>
      </trkpt>
      <trkpt lat="46.09302" lon="4.48746">
        <ele>577.8</ele>
        <time>2020-05-21T10:18:02+02:00</time>
      </trkpt>
      <trkpt lat="46.09276" lon="4.48758">
        <ele>577.5</ele>
        <time>2020-05-21T10:17:26+02:00</time>
      </trkpt>
      <trkpt lat="46.09195" lon="4.48784">
        <ele>577.6</ele>
        <time>2020-05-21T10:15:35+02:00</time>
      </trkpt>
      <trkpt lat="46.09169" lon="4.48788">
        <ele>578</ele>
        <time>2020-05-21T10:15:00+02:00</time>
      </trkpt>
      <trkpt lat="46.09142" lon="4.48785">
        <ele>578.4</ele>
        <time>2020-05-21T10:14:24+02:00</time>
      </trkpt>
      <trkpt lat="46.09114" lon="4.48778">
        <ele>578.6</ele>
        <time>2020-05-21T10:13:46+02:00</time>
      </trkpt>
      <trkpt lat="46.09087" lon="4.48771">
        <ele>578.3</ele>
        <time>2020-05-21T10:13:09+02:00</time>
      </trkpt>
      <trkpt lat="46.0906" lon="4.48766">
        <ele>577.9</ele>
        <time>2020-05-21T10:12:33+02:00</time>
      </trkpt>
      <trkpt lat="46.09033" lon="4.48767">
        <ele>577.9</ele>
        <time>2020-05-21T10:11:57+02:00</time>
      </trkpt>
      <trkpt lat="46.09006" lon="4.48778">
        <ele>579</ele>
        <time>2020-05-21T10:11:19+02:00</time>
      </trkpt>
      <trkpt lat="46.08983" lon="4.488">
        <ele>579.3</ele>
        <time>2020-05-21T10:10:43+02:00</time>
      </trkpt>
      <trkpt lat="46.08963" lon="4.48826">
        <ele>579.7</ele>
        <time>2020-05-21T10:10:07+02:00</time>
      </trkpt>
      <trkpt lat="46.08943" lon="4.48852">
        <ele>578.3</ele>
        <time>2020-05-21T10:09:31+02:00</time>
      </trkpt>
      <trkpt lat="46.0892" lon="4.48874">
        <ele>576.7</ele>
        <time>2020-05-21T10:08:54+02:00</time>
      </trkpt>
      <trkpt lat="46.08895" lon="4.48892">
        <ele>576.4</ele>
        <time>2020-05-21T10:08:17+02:00</time>
      </trkpt>
      <trkpt lat="46.08798" lon="4.48971">
        <ele>579.6</ele>
        <time>2020-05-21T10:05:48+02:00</time>
      </trkpt>
      <trkpt lat="46.08774" lon="4.48991">
        <ele>584.2</ele>
        <time>2020-05-21T10:05:11+02:00</time>
      </trkpt>
      <trkpt lat="46.08751" lon="4.4901">
        <ele>588.6</ele>
        <time>2020-05-21T10:04:36+02:00</time>
      </trkpt>
      <trkpt lat="46.08725" lon="4.49026">
        <ele>589.2</ele>
        <time>2020-05-21T10:03:58+02:00</time>
      </trkpt>
      <trkpt lat="46.08672" lon="4.49058">
        <ele>592.5</ele>
        <time>2020-05-21T10:02:41+02:00</time>
      </trkpt>
      <trkpt lat="46.08647" lon="4.49079">
        <ele>594</ele>
        <time>2020-05-21T10:02:03+02:00</time>
      </trkpt>
      <trkpt lat="46.08619" lon="4.49091">
        <ele>594</ele>
        <time>2020-05-21T10:01:24+02:00</time>
      </trkpt>
      <trkpt lat="46.08589" lon="4.49093">
        <ele>593.8</ele>
        <time>2020-05-21T10:00:44+02:00</time>
      </trkpt>
      <trkpt lat="46.08559" lon="4.49099">
        <ele>588.5</ele>
        <time>2020-05-21T10:00:03+02:00</time>
      </trkpt>
      <trkpt lat="46.08533" lon="4.49121">
        <ele>582.6</ele>
        <time>2020-05-21T09:59:23+02:00</time>
      </trkpt>
      <trkpt lat="46.08512" lon="4.49152">
        <ele>579.1</ele>
        <time>2020-05-21T09:58:43+02:00</time>
      </trkpt>
      <trkpt lat="46.08489" lon="4.49171">
        <ele>575.4</ele>
        <time>2020-05-21T09:58:07+02:00</time>
      </trkpt>
      <trkpt lat="46.0846" lon="4.49173">
        <ele>571</ele>
        <time>2020-05-21T09:57:29+02:00</time>
      </trkpt>
      <trkpt lat="46.0843" lon="4.49171">
        <ele>567.3</ele>
        <time>2020-05-21T09:56:49+02:00</time>
      </trkpt>
      <trkpt lat="46.08398" lon="4.49171">
        <ele>562.8</ele>
        <time>2020-05-21T09:56:06+02:00</time>
      </trkpt>
      <trkpt lat="46.08367" lon="4.49171">
        <ele>558.3</ele>
        <time>2020-05-21T09:55:25+02:00</time>
      </trkpt>
      <trkpt lat="46.08337" lon="4.49169">
        <ele>554.2</ele>
        <time>2020-05-21T09:54:44+02:00</time>
      </trkpt>
      <trkpt lat="46.08307" lon="4.49174">
        <ele>548.4</ele>
        <time>2020-05-21T09:54:04+02:00</time>
      </trkpt>
      <trkpt lat="46.0828" lon="4.49187">
        <ele>542.6</ele>
        <time>2020-05-21T09:53:26+02:00</time>
      </trkpt>
      <trkpt lat="46.08254" lon="4.49191">
        <ele>538.2</ele>
        <time>2020-05-21T09:52:51+02:00</time>
      </trkpt>
      <trkpt lat="46.08226" lon="4.49191">
        <ele>533.7</ele>
        <time>2020-05-21T09:52:14+02:00</time>
      </trkpt>
      <trkpt lat="46.082" lon="4.49185">
        <ele>530</ele>
        <time>2020-05-21T09:51:39+02:00</time>
      </trkpt>
      <trkpt lat="46.08175" lon="4.49203">
        <ele>524.7</ele>
        <time>2020-05-21T09:51:01+02:00</time>
      </trkpt>
      <trkpt lat="46.08128" lon="4.49247">
        <ele>515.5</ele>
        <time>2020-05-21T09:49:47+02:00</time>
      </trkpt>
      <trkpt lat="46.08103" lon="4.49266">
        <ele>509.4</ele>
        <time>2020-05-21T09:49:09+02:00</time>
      </trkpt>
      <trkpt lat="46.08075" lon="4.49277">
        <ele>503.3</ele>
        <time>2020-05-21T09:48:30+02:00</time>
      </trkpt>
      <trkpt lat="46.08048" lon="4.4929">
        <ele>495.9</ele>
        <time>2020-05-21T09:47:52+02:00</time>
      </trkpt>
      <trkpt lat="46.0802" lon="4.493">
        <ele>489.8</ele>
        <time>2020-05-21T09:47:14+02:00</time>
      </trkpt>
      <trkpt lat="46.07992" lon="4.49307">
        <ele>485.2</ele>
        <time>2020-05-21T09:46:36+02:00</time>
      </trkpt>
      <trkpt lat="46.07964" lon="4.49315">
        <ele>482.6</ele>
        <time>2020-05-21T09:45:58+02:00</time>
      </trkpt>
      <trkpt lat="46.07938" lon="4.4933">
        <ele>480.5</ele>
        <time>2020-05-21T09:45:20+02:00</time>
      </trkpt>
      <trkpt lat="46.07918" lon="4.49344">
        <ele>476.9</ele>
        <time>2020-05-21T09:44:51+02:00</time>
      </trkpt>
      <trkpt lat="46.07938" lon="4.49373">
        <ele>472</ele>
        <time>2020-05-21T09:44:13+02:00</time>
      </trkpt>
      <trkpt lat="46.07963" lon="4.49392">
        <ele>468.8</ele>
        <time>2020-05-21T09:43:35+02:00</time>
      </trkpt>
      <trkpt lat="46.07993" lon="4.49396">
        <ele>469</ele>
        <time>2020-05-21T09:42:55+02:00</time>
      </trkpt>
      <trkpt lat="46.0802" lon="4.49412">
        <ele>467.1</ele>
        <time>2020-05-21T09:42:16+02:00</time>
      </trkpt>
      <trkpt lat="46.08044" lon="4.49432">
        <ele>464.7</ele>
        <time>2020-05-21T09:41:39+02:00</time>
      </trkpt>
      <trkpt lat="46.08066" lon="4.49456">
        <ele>461.4</ele>
        <time>2020-05-21T09:41:02+02:00</time>
      </trkpt>
      <trkpt lat="46.08085" lon="4.49486">
        <ele>456.5</ele>
        <time>2020-05-21T09:40:25+02:00</time>
      </trkpt>
      <trkpt lat="46.08097" lon="4.49522">
        <ele>453.2</ele>
        <time>2020-05-21T09:39:48+02:00</time>
      </trkpt>
      <trkpt lat="46.08115" lon="4.49551">
        <ele>452.3</ele>
        <time>2020-05-21T09:39:12+02:00</time>
      </trkpt>
      <trkpt lat="46.0814" lon="4.49571">
        <ele>452.4</ele>
        <time>2020-05-21T09:38:33+02:00</time>
      </trkpt>
      <trkpt lat="46.08188" lon="4.49609">
        <ele>449</ele>
        <time>2020-05-21T09:37:20+02:00</time>
      </trkpt>
      <trkpt lat="46.08214" lon="4.4962">
        <ele>446.8</ele>
        <time>2020-05-21T09:36:44+02:00</time>
      </trkpt>
      <trkpt lat="46.08239" lon="4.496">
        <ele>448.9</ele>
        <time>2020-05-21T09:36:06+02:00</time>
      </trkpt>
      <trkpt lat="46.08265" lon="4.496">
        <ele>448.7</ele>
        <time>2020-05-21T09:35:31+02:00</time>
      </trkpt>
      <trkpt lat="46.08285" lon="4.4963">
        <ele>445.2</ele>
        <time>2020-05-21T09:34:53+02:00</time>
      </trkpt>
      <trkpt lat="46.08307" lon="4.49656">
        <ele>442.9</ele>
        <time>2020-05-21T09:34:15+02:00</time>
      </trkpt>
      <trkpt lat="46.08333" lon="4.49673">
        <ele>442.5</ele>
        <time>2020-05-21T09:33:37+02:00</time>
      </trkpt>
      <trkpt lat="46.08361" lon="4.4968">
        <ele>442</ele>
        <time>2020-05-21T09:32:59+02:00</time>
      </trkpt>
      <trkpt lat="46.08388" lon="4.49679">
        <ele>442.2</ele>
        <time>2020-05-21T09:32:23+02:00</time>
      </trkpt>
      <trkpt lat="46.08415" lon="4.49676">
        <ele>442.4</ele>
        <time>2020-05-21T09:31:47+02:00</time>
      </trkpt>
      <trkpt lat="46.08439" lon="4.49692">
        <ele>443.7</ele>
        <time>2020-05-21T09:31:11+02:00</time>
      </trkpt>
      <trkpt lat="46.08444" lon="4.4973">
        <ele>442.5</ele>
        <time>2020-05-21T09:30:36+02:00</time>
      </trkpt>
      <trkpt lat="46.08443" lon="4.4977">
        <ele>441</ele>
        <time>2020-05-21T09:29:59+02:00</time>
      </trkpt>
      <trkpt lat="46.0845" lon="4.49809">
        <ele>440.8</ele>
        <time>2020-05-21T09:29:21+02:00</time>
      </trkpt>
      <trkpt lat="46.0847" lon="4.49834">
        <ele>442</ele>
        <time>2020-05-21T09:28:46+02:00</time>
      </trkpt>
      <trkpt lat="46.08496" lon="4.49851">
        <ele>442.5</ele>
        <time>2020-05-21T09:28:08+02:00</time>
      </trkpt>
      <trkpt lat="46.08519" lon="4.49854">
        <ele>443.9</ele>
        <time>2020-05-21T09:27:37+02:00</time>
      </trkpt>
      <trkpt lat="46.08519" lon="4.49815">
        <ele>447.5</ele>
        <time>2020-05-21T09:27:01+02:00</time>
      </trkpt>
      <trkpt lat="46.08538" lon="4.49797">
        <ele>450.5</ele>
        <time>2020-05-21T09:26:31+02:00</time>
      </trkpt>
      <trkpt lat="46.08565" lon="4.49801">
        <ele>452.7</ele>
        <time>2020-05-21T09:25:54+02:00</time>
      </trkpt>
      <trkpt lat="46.08593" lon="4.49799">
        <ele>455.2</ele>
        <time>2020-05-21T09:25:17+02:00</time>
      </trkpt>
      <trkpt lat="46.0862" lon="4.49789">
        <ele>458.4</ele>
        <time>2020-05-21T09:24:40+02:00</time>
      </trkpt>
      <trkpt lat="46.08679" lon="4.49772">
        <ele>465.7</ele>
        <time>2020-05-21T09:23:19+02:00</time>
      </trkpt>
      <trkpt lat="46.08708" lon="4.49776">
        <ele>464.8</ele>
        <time>2020-05-21T09:22:41+02:00</time>
      </trkpt>
      <trkpt lat="46.08736" lon="4.49791">
        <ele>461.2</ele>
        <time>2020-05-21T09:22:01+02:00</time>
      </trkpt>
      <trkpt lat="46.08767" lon="4.49798">
        <ele>457.7</ele>
        <time>2020-05-21T09:21:19+02:00</time>
      </trkpt>
      <trkpt lat="46.08796" lon="4.49782">
        <ele>457.5</ele>
        <time>2020-05-21T09:20:37+02:00</time>
      </trkpt>
      <trkpt lat="46.08819" lon="4.49756">
        <ele>458.5</ele>
        <time>2020-05-21T09:19:58+02:00</time>
      </trkpt>
      <trkpt lat="46.0884" lon="4.49729">
        <ele>459.6</ele>
        <time>2020-05-21T09:19:21+02:00</time>
      </trkpt>
      <trkpt lat="46.08865" lon="4.49708">
        <ele>459.1</ele>
        <time>2020-05-21T09:18:42+02:00</time>
      </trkpt>
      <trkpt lat="46.0889" lon="4.49685">
        <ele>458.3</ele>
        <time>2020-05-21T09:18:03+02:00</time>
      </trkpt>
      <trkpt lat="46.08917" lon="4.49667">
        <ele>456</ele>
        <time>2020-05-21T09:17:23+02:00</time>
      </trkpt>
      <trkpt lat="46.08944" lon="4.49656">
        <ele>459.3</ele>
        <time>2020-05-21T09:16:46+02:00</time>
      </trkpt>
      <trkpt lat="46.08973" lon="4.49665">
        <ele>459.6</ele>
        <time>2020-05-21T09:16:06+02:00</time>
      </trkpt>
      <trkpt lat="46.09" lon="4.49666">
        <ele>461.1</ele>
        <time>2020-05-21T09:15:30+02:00</time>
      </trkpt>
      <trkpt lat="46.09025" lon="4.49653">
        <ele>462.1</ele>
        <time>2020-05-21T09:14:54+02:00</time>
      </trkpt>
      <trkpt lat="46.09048" lon="4.49626">
        <ele>464.9</ele>
        <time>2020-05-21T09:14:15+02:00</time>
      </trkpt>
      <trkpt lat="46.09068" lon="4.49597">
        <ele>468.2</ele>
        <time>2020-05-21T09:13:37+02:00</time>
      </trkpt>
      <trkpt lat="46.09089" lon="4.49565">
        <ele>470.3</ele>
        <time>2020-05-21T09:12:56+02:00</time>
      </trkpt>
      <trkpt lat="46.09112" lon="4.49536">
        <ele>468.6</ele>
        <time>2020-05-21T09:12:15+02:00</time>
      </trkpt>
      <trkpt lat="46.09133" lon="4.49509">
        <ele>468.1</ele>
        <time>2020-05-21T09:11:38+02:00</time>
      </trkpt>
      <trkpt lat="46.09153" lon="4.49481">
        <ele>469.2</ele>
        <time>2020-05-21T09:11:01+02:00</time>
      </trkpt>
      <trkpt lat="46.09173" lon="4.49449">
        <ele>472.7</ele>
        <time>2020-05-21T09:10:21+02:00</time>
      </trkpt>
      <trkpt lat="46.09197" lon="4.49431">
        <ele>476.5</ele>
        <time>2020-05-21T09:09:45+02:00</time>
      </trkpt>
      <trkpt lat="46.09221" lon="4.4945">
        <ele>473.6</ele>
        <time>2020-05-21T09:09:08+02:00</time>
      </trkpt>
      <trkpt lat="46.09245" lon="4.49466">
        <ele>470.9</ele>
        <time>2020-05-21T09:08:33+02:00</time>
      </trkpt>
      <trkpt lat="46.09274" lon="4.4947">
        <ele>471.1</ele>
        <time>2020-05-21T09:07:54+02:00</time>
      </trkpt>
      <trkpt lat="46.09303" lon="4.49468">
        <ele>472.7</ele>
        <time>2020-05-21T09:07:15+02:00</time>
      </trkpt>
      <trkpt lat="46.0933" lon="4.49464">
        <ele>474.5</ele>
        <time>2020-05-21T09:06:39+02:00</time>
      </trkpt>
      <trkpt lat="46.09358" lon="4.49461">
        <ele>474.9</ele>
        <time>2020-05-21T09:06:02+02:00</time>
      </trkpt>
      <trkpt lat="46.09385" lon="4.49461">
        <ele>474.6</ele>
        <time>2020-05-21T09:05:26+02:00</time>
      </trkpt>
      <trkpt lat="46.09412" lon="4.49455">
        <ele>474.8</ele>
        <time>2020-05-21T09:04:49+02:00</time>
      </trkpt>
      <trkpt lat="46.09439" lon="4.49445">
        <ele>474.3</ele>
        <time>2020-05-21T09:04:12+02:00</time>
      </trkpt>
      <trkpt lat="46.09466" lon="4.4943">
        <ele>474.2</ele>
        <time>2020-05-21T09:03:33+02:00</time>
      </trkpt>
      <trkpt lat="46.09492" lon="4.4942">
        <ele>474</ele>
        <time>2020-05-21T09:02:57+02:00</time>
      </trkpt>
      <trkpt lat="46.09519" lon="4.49413">
        <ele>473.3</ele>
        <time>2020-05-21T09:02:21+02:00</time>
      </trkpt>
      <trkpt lat="46.09545" lon="4.494">
        <ele>473.5</ele>
        <time>2020-05-21T09:01:44+02:00</time>
      </trkpt>
      <trkpt lat="46.09571" lon="4.49388">
        <ele>473.8</ele>
        <time>2020-05-21T09:01:08+02:00</time>
      </trkpt>
      <trkpt lat="46.09598" lon="4.49381">
        <ele>473.2</ele>
        <time>2020-05-21T09:00:31+02:00</time>
      </trkpt>
      <trkpt lat="46.09653" lon="4.49364">
        <ele>471.4</ele>
        <time>2020-05-21T08:59:16+02:00</time>
      </trkpt>
      <trkpt lat="46.0968" lon="4.49354">
        <ele>470.7</ele>
        <time>2020-05-21T08:58:39+02:00</time>
      </trkpt>
      <trkpt lat="46.09709" lon="4.49345">
        <ele>470.1</ele>
        <time>2020-05-21T08:57:59+02:00</time>
      </trkpt>
      <trkpt lat="46.09738" lon="4.49336">
        <ele>469.4</ele>
        <time>2020-05-21T08:57:20+02:00</time>
      </trkpt>
      <trkpt lat="46.09763" lon="4.49318">
        <ele>469.9</ele>
        <time>2020-05-21T08:56:42+02:00</time>
      </trkpt>
      <trkpt lat="46.09785" lon="4.49294">
        <ele>471.3</ele>
        <time>2020-05-21T08:56:06+02:00</time>
      </trkpt>
      <trkpt lat="46.09807" lon="4.4927">
        <ele>472.9</ele>
        <time>2020-05-21T08:55:29+02:00</time>
      </trkpt>
      <trkpt lat="46.09831" lon="4.49252">
        <ele>473.9</ele>
        <time>2020-05-21T08:54:53+02:00</time>
      </trkpt>
      <trkpt lat="46.09856" lon="4.49272">
        <ele>471.6</ele>
        <time>2020-05-21T08:54:14+02:00</time>
      </trkpt>
      <trkpt lat="46.0988" lon="4.49289">
        <ele>470.1</ele>
        <time>2020-05-21T08:53:39+02:00</time>
      </trkpt>
      <trkpt lat="46.09906" lon="4.49299">
        <ele>469.7</ele>
        <time>2020-05-21T08:53:03+02:00</time>
      </trkpt>
      <trkpt lat="46.09932" lon="4.49309">
        <ele>468.6</ele>
        <time>2020-05-21T08:52:27+02:00</time>
      </trkpt>
      <trkpt lat="46.09948" lon="4.49341">
        <ele>465.5</ele>
        <time>2020-05-21T08:51:50+02:00</time>
      </trkpt>
      <trkpt lat="46.09972" lon="4.49353">
        <ele>463.7</ele>
        <time>2020-05-21T08:51:17+02:00</time>
      </trkpt>
      <trkpt lat="46.09998" lon="4.49344">
        <ele>464</ele>
        <time>2020-05-21T08:50:41+02:00</time>
      </trkpt>
      <trkpt lat="46.10025" lon="4.4934">
        <ele>465.1</ele>
        <time>2020-05-21T08:50:05+02:00</time>
      </trkpt>
      <trkpt lat="46.10048" lon="4.49357">
        <ele>464.5</ele>
        <time>2020-05-21T08:49:30+02:00</time>
      </trkpt>
      <trkpt lat="46.10047" lon="4.49358">
        <ele>464.4</ele>
      </trkpt>
      <trkpt lat="46.10049" lon="4.49362">
        <ele>464.2</ele>
      </trkpt>
      <trkpt lat="46.10044" lon="4.49364">
        <ele>463.9</ele>
      </trkpt>
      <trkpt lat="46.10038" lon="4.49367">
        <ele>463.4</ele>
      </trkpt>
      <trkpt lat="46.10032" lon="4.49373">
        <ele>462.7</ele>
      </trkpt>
      <trkpt lat="46.10027" lon="4.49379">
        <ele>462</ele>
      </trkpt>
      <trkpt lat="46.10019" lon="4.49391">
        <ele>460.6</ele>
      </trkpt>
      <trkpt lat="46.10015" lon="4.49398">
        <ele>459.7</ele>
      </trkpt>
      <trkpt lat="46.1001" lon="4.49409">
        <ele>458.4</ele>
      </trkpt>
      <trkpt lat="46.10006" lon="4.49422">
        <ele>457</ele>
      </trkpt>
      <trkpt lat="46.10004" lon="4.49433">
        <ele>455.9</ele>
      </trkpt>
      <trkpt lat="46.09999" lon="4.49456">
        <ele>453.7</ele>
      </trkpt>
      <trkpt lat="46.09998" lon="4.49468">
        <ele>452.7</ele>
      </trkpt>
      <trkpt lat="46.09999" lon="4.49493">
        <ele>450.6</ele>
      </trkpt>
      <trkpt lat="46.1" lon="4.49514">
        <ele>449.5</ele>
      </trkpt>
      <trkpt lat="46.10001" lon="4.49528">
        <ele>449.1</ele>
      </trkpt>
      <trkpt lat="46.10002" lon="4.49533">
        <ele>448.9</ele>
      </trkpt>
      <trkpt lat="46.10002" lon="4.49556">
        <ele>448.1</ele>
      </trkpt>
      <trkpt lat="46.10002" lon="4.4956">
        <ele>448</ele>
      </trkpt>
      <trkpt lat="46.10001" lon="4.49569">
        <ele>447.6</ele>
      </trkpt>
      <trkpt lat="46.1" lon="4.49577">
        <ele>447.2</ele>
      </trkpt>
      <trkpt lat="46.09995" lon="4.4959">
        <ele>447.3</ele>
      </trkpt>
      <trkpt lat="46.09992" lon="4.49595">
        <ele>447.5</ele>
      </trkpt>
      <trkpt lat="46.09983" lon="4.49607">
        <ele>448</ele>
      </trkpt>
      <trkpt lat="46.0997" lon="4.49624">
        <ele>448.4</ele>
      </trkpt>
      <trkpt lat="46.09959" lon="4.49649">
        <ele>449</ele>
      </trkpt>
      <trkpt lat="46.10003" lon="4.49637">
        <ele>449.7</ele>
      </trkpt>
      <trkpt lat="46.10008" lon="4.49636">
        <ele>449.9</ele>
      </trkpt>
      <trkpt lat="46.10015" lon="4.49635">
        <ele>450.3</ele>
      </trkpt>
      <trkpt lat="46.1003" lon="4.49632">
        <ele>450.9</ele>
      </trkpt>
      <trkpt lat="46.10034" lon="4.49632">
        <ele>451.1</ele>
      </trkpt>
      <trkpt lat="46.10038" lon="4.49632">
        <ele>451.3</ele>
      </trkpt>
      <trkpt lat="46.10048" lon="4.49644">
        <ele>452.4</ele>
      </trkpt>
      <trkpt lat="46.10056" lon="4.49657">
        <ele>453.3</ele>
      </trkpt>
      <trkpt lat="46.10066" lon="4.49666">
        <ele>454.1</ele>
      </trkpt>
      <trkpt lat="46.10078" lon="4.49681">
        <ele>456.1</ele>
      </trkpt>
      <trkpt lat="46.10083" lon="4.49687">
        <ele>456.7</ele>
      </trkpt>
      <trkpt lat="46.10085" lon="4.4969">
        <ele>457.3</ele>
      </trkpt>
      <trkpt lat="46.10113" lon="4.49726">
        <ele>464.4</ele>
      </trkpt>
      <trkpt lat="46.10115" lon="4.49734">
        <ele>465.2</ele>
      </trkpt>
    </trkseg>
  </trk>
</gpx>